createdAt,value
2019-03-18T00:00:26.343Z,1.40
2019-03-18T00:02:54.810Z,2.17
2019-03-18T00:05:23.295Z,1.80
2019-03-18T00:07:51.760Z,1.70
2019-03-18T00:10:20.206Z,1.37
2019-03-18T00:12:48.691Z,1.27
2019-03-18T00:15:17.200Z,1.32
2019-03-18T00:17:45.662Z,1.32
2019-03-18T00:20:14.799Z,1.32
2019-03-18T00:22:43.416Z,1.80
2019-03-18T00:25:18.901Z,1.62
2019-03-18T00:27:47.435Z,2.00
2019-03-18T00:30:19.836Z,1.72
2019-03-18T00:32:48.332Z,2.20
2019-03-18T00:35:17.052Z,2.35
2019-03-18T00:37:45.516Z,2.20
2019-03-18T00:40:16.431Z,1.98
2019-03-18T00:42:44.968Z,1.90
2019-03-18T00:45:15.603Z,2.27
2019-03-18T00:47:44.336Z,2.12
2019-03-18T00:50:16.138Z,1.70
2019-03-18T00:52:44.625Z,1.62
2019-03-18T00:55:13.301Z,2.80
2019-03-18T00:57:41.736Z,2.17
2019-03-18T01:00:17.697Z,2.00
2019-03-18T01:02:49.112Z,2.52
2019-03-18T01:05:16.307Z,3.42
2019-03-18T01:07:44.874Z,3.83
2019-03-18T01:10:14.538Z,3.00
2019-03-18T01:12:43.008Z,4.17
2019-03-18T01:15:12.251Z,2.30
2019-03-18T01:17:40.707Z,2.15
2019-03-18T01:20:11.265Z,1.92
2019-03-18T01:22:39.774Z,3.33
2019-03-18T01:25:12.070Z,2.33
2019-03-18T01:27:40.750Z,1.90
2019-03-18T01:30:14.592Z,2.12
2019-03-18T01:32:43.033Z,2.30
2019-03-18T01:35:12.229Z,3.10
2019-03-18T01:37:40.652Z,3.40
2019-03-18T01:40:11.040Z,2.80
2019-03-18T01:42:39.602Z,1.90
2019-03-18T01:45:09.226Z,2.77
2019-03-18T01:47:37.725Z,3.95
2019-03-18T01:50:10.733Z,2.95
2019-03-18T01:52:39.235Z,2.37
2019-03-18T01:55:07.908Z,1.72
2019-03-18T01:57:36.337Z,2.90
2019-03-18T02:00:10.027Z,1.98
2019-03-18T02:02:38.460Z,3.10
2019-03-18T02:05:08.553Z,2.62
2019-03-18T02:07:36.985Z,2.05
2019-03-18T02:10:13.455Z,2.20
2019-03-18T02:12:43.419Z,2.00
2019-03-18T02:15:14.218Z,3.42
2019-03-18T02:17:42.957Z,2.20
2019-03-18T02:20:19.427Z,2.42
2019-03-18T02:22:46.433Z,2.65
2019-03-18T02:25:14.856Z,2.80
2019-03-18T02:27:43.304Z,2.80
2019-03-18T02:30:13.870Z,3.00
2019-03-18T02:32:42.347Z,3.33
2019-03-18T02:35:10.857Z,2.20
2019-03-18T02:37:39.401Z,2.98
2019-03-18T02:40:10.171Z,2.50
2019-03-18T02:42:39.365Z,3.30
2019-03-18T02:45:09.661Z,2.70
2019-03-18T02:47:38.119Z,3.10
2019-03-18T02:50:07.688Z,2.95
2019-03-18T02:52:36.133Z,1.77
2019-03-18T02:55:05.928Z,3.35
2019-03-18T02:57:34.392Z,2.17
2019-03-18T03:00:02.903Z,2.77
2019-03-18T03:02:31.339Z,2.62
2019-03-18T03:04:59.769Z,2.30
2019-03-18T03:07:29.389Z,2.08
2019-03-18T03:09:57.832Z,2.62
2019-03-18T03:12:26.269Z,2.17
2019-03-18T03:14:54.741Z,1.70
2019-03-18T03:17:23.692Z,2.43
2019-03-18T03:19:52.092Z,3.27
2019-03-18T03:22:20.522Z,3.52
2019-03-18T03:24:48.982Z,2.87
2019-03-18T03:27:17.485Z,3.27
2019-03-18T03:29:45.933Z,2.08
2019-03-18T03:32:14.380Z,2.33
2019-03-18T03:34:42.907Z,2.70
2019-03-18T03:37:11.372Z,1.67
2019-03-18T03:39:39.802Z,2.58
2019-03-18T03:42:08.311Z,2.20
2019-03-18T03:44:36.776Z,3.05
2019-03-18T03:47:05.219Z,2.95
2019-03-18T03:49:33.656Z,2.20
2019-03-18T03:52:02.097Z,1.87
2019-03-18T03:54:30.519Z,2.25
2019-03-18T03:56:59.405Z,2.42
2019-03-18T03:59:27.906Z,1.62
2019-03-18T04:01:56.633Z,2.10
2019-03-18T04:04:25.087Z,1.62
2019-03-18T04:06:53.748Z,2.20
2019-03-18T04:09:22.180Z,2.12
2019-03-18T04:11:50.701Z,2.08
2019-03-18T04:14:19.190Z,1.50
2019-03-18T04:17:00.613Z,1.67
2019-03-18T04:19:17.954Z,1.87
2019-03-18T04:21:50.392Z,1.95
2019-03-18T04:24:16.904Z,1.67
2019-03-18T04:26:45.334Z,2.35
2019-03-18T04:29:13.789Z,1.92
2019-03-18T04:31:42.212Z,3.00
2019-03-18T04:34:10.652Z,2.60
2019-03-18T04:36:39.097Z,2.05
2019-03-18T04:39:07.827Z,1.67
2019-03-18T04:41:36.422Z,1.67
2019-03-18T04:44:04.821Z,1.60
2019-03-18T04:46:33.268Z,2.02
2019-03-18T04:49:02.070Z,1.00
2019-03-18T04:51:30.501Z,2.08
2019-03-18T04:53:58.932Z,1.15
2019-03-18T04:56:27.422Z,1.80
2019-03-18T04:58:55.840Z,1.98
2019-03-18T05:01:24.346Z,1.50
2019-03-18T05:03:52.770Z,1.80
2019-03-18T05:06:21.228Z,1.47
2019-03-18T05:08:49.743Z,1.72
2019-03-18T05:11:18.205Z,1.57
2019-03-18T05:13:46.746Z,1.40
2019-03-18T05:16:15.803Z,1.35
2019-03-18T05:18:44.243Z,1.92
2019-03-18T05:21:12.684Z,1.65
2019-03-18T05:23:41.207Z,2.20
2019-03-18T05:26:09.750Z,2.08
2019-03-18T05:28:38.170Z,2.08
2019-03-18T05:31:06.597Z,2.12
2019-03-18T05:33:35.109Z,1.45
2019-03-18T05:36:03.598Z,2.90
2019-03-18T05:38:32.003Z,2.42
2019-03-18T05:41:00.831Z,1.07
2019-03-18T05:43:29.446Z,1.60
2019-03-18T05:45:57.885Z,1.30
2019-03-18T05:48:26.321Z,2.27
2019-03-18T05:50:54.789Z,2.15
2019-03-18T05:53:23.218Z,2.72
2019-03-18T05:55:51.653Z,1.70
2019-03-18T05:58:20.111Z,1.60
2019-03-18T06:00:48.610Z,2.00
2019-03-18T06:03:17.037Z,1.70
2019-03-18T06:05:45.485Z,2.17
2019-03-18T06:08:13.919Z,2.85
2019-03-18T06:10:42.435Z,2.67
2019-03-18T06:13:14.018Z,2.58
2019-03-18T06:15:42.423Z,3.02
2019-03-18T06:18:10.928Z,2.58
2019-03-18T06:20:39.359Z,2.20
2019-03-18T06:23:07.804Z,4.00
2019-03-18T06:25:36.318Z,2.67
2019-03-18T06:28:04.790Z,2.70
2019-03-18T06:30:33.233Z,2.58
2019-03-18T06:33:01.764Z,2.37
2019-03-18T06:35:30.189Z,3.00
2019-03-18T06:37:58.643Z,1.90
2019-03-18T06:40:27.112Z,3.05
2019-03-18T06:42:55.563Z,2.58
2019-03-18T06:45:24.009Z,2.08
2019-03-18T06:48:04.079Z,2.55
2019-03-18T06:50:22.631Z,1.82
2019-03-18T06:52:51.075Z,2.05
2019-03-18T06:55:19.527Z,2.25
2019-03-18T06:57:48.922Z,2.17
2019-03-18T07:00:17.628Z,2.02
2019-03-18T07:02:46.064Z,2.50
2019-03-18T07:05:14.743Z,2.33
2019-03-18T07:07:43.190Z,2.25
2019-03-18T07:10:13.062Z,1.82
2019-03-18T07:12:41.493Z,1.82
2019-03-18T07:15:10.571Z,3.10
2019-03-18T07:17:39.020Z,2.80
2019-03-18T07:20:12.540Z,2.95
2019-03-18T07:22:41.284Z,1.82
2019-03-18T07:25:09.797Z,2.55
2019-03-18T07:27:38.661Z,1.82
2019-03-18T07:30:11.928Z,2.25
2019-03-18T07:32:40.358Z,2.08
2019-03-18T07:35:08.943Z,1.82
2019-03-18T07:37:37.401Z,3.25
2019-03-18T07:40:11.444Z,2.40
2019-03-18T07:42:39.880Z,2.30
2019-03-18T07:45:11.936Z,2.10
2019-03-18T07:47:40.400Z,1.62
2019-03-18T07:50:13.243Z,2.20
2019-03-18T07:52:41.730Z,1.90
2019-03-18T07:55:10.795Z,2.02
2019-03-18T07:57:39.217Z,2.20
2019-03-18T08:00:12.598Z,2.35
2019-03-18T08:02:41.069Z,2.27
2019-03-18T08:05:10.342Z,2.08
2019-03-18T08:07:38.801Z,1.82
2019-03-18T08:10:14.197Z,1.37
2019-03-18T08:12:42.744Z,0.95
2019-03-18T08:15:12.304Z,1.70
2019-03-18T08:17:40.818Z,1.57
2019-03-18T08:20:12.890Z,1.12
2019-03-18T08:22:41.323Z,1.30
2019-03-18T08:25:10.514Z,2.05
2019-03-18T08:27:38.979Z,2.08
2019-03-18T08:30:15.621Z,2.30
2019-03-18T08:32:44.112Z,1.77
2019-03-18T08:35:12.642Z,1.87
2019-03-18T08:37:41.142Z,2.47
2019-03-18T08:40:11.548Z,2.33
2019-03-18T08:42:39.993Z,1.92
2019-03-18T08:45:12.741Z,2.37
2019-03-18T08:47:41.190Z,1.90
2019-03-18T08:50:12.459Z,1.57
2019-03-18T08:52:41.300Z,1.98
2019-03-18T08:55:11.369Z,1.70
2019-03-18T08:57:39.857Z,2.10
2019-03-18T09:00:16.221Z,1.90
2019-03-18T09:02:44.676Z,1.90
2019-03-18T09:05:13.397Z,2.58
2019-03-18T09:07:42.003Z,2.10
2019-03-18T09:10:13.498Z,1.60
2019-03-18T09:12:42.078Z,1.77
2019-03-18T09:15:11.579Z,1.90
2019-03-18T09:17:40.192Z,1.75
2019-03-18T09:20:17.110Z,1.07
2019-03-18T09:22:45.645Z,1.42
2019-03-18T09:25:14.423Z,1.05
2019-03-18T09:27:42.851Z,1.67
2019-03-18T09:30:14.627Z,4.30
2019-03-18T09:32:43.096Z,2.45
2019-03-18T09:35:11.894Z,2.92
2019-03-18T09:37:40.355Z,2.15
2019-03-18T09:40:13.034Z,2.22
2019-03-18T09:42:41.482Z,1.65
2019-03-18T09:45:12.106Z,2.10
2019-03-18T09:47:40.553Z,1.87
2019-03-18T09:50:10.466Z,1.98
2019-03-18T09:52:39.225Z,2.00
2019-03-18T09:55:08.713Z,2.58
2019-03-18T09:57:37.313Z,2.00
2019-03-18T10:00:08.809Z,1.55
2019-03-18T10:02:37.278Z,1.60
2019-03-18T10:05:07.059Z,1.42
2019-03-18T10:07:35.508Z,1.50
2019-03-18T10:10:11.863Z,3.08
2019-03-18T10:12:40.443Z,1.42
2019-03-18T10:15:17.489Z,0.85
2019-03-18T10:17:45.962Z,0.75
2019-03-18T10:20:14.539Z,1.50
2019-03-18T10:22:43.351Z,2.40
2019-03-18T10:25:11.805Z,1.52
2019-03-18T10:27:40.281Z,2.08
2019-03-18T10:30:10.939Z,1.72
2019-03-18T10:32:39.417Z,1.77
2019-03-18T10:35:08.509Z,2.02
2019-03-18T10:37:36.955Z,1.55
2019-03-18T10:40:13.466Z,1.55
2019-03-18T10:42:41.972Z,0.85
2019-03-18T10:45:12.391Z,0.95
2019-03-18T10:47:40.858Z,0.80
2019-03-18T10:50:14.500Z,1.30
2019-03-18T10:52:43.198Z,1.00
2019-03-18T10:55:11.721Z,0.50
2019-03-18T10:57:40.212Z,0.90
2019-03-18T11:00:14.011Z,1.35
2019-03-18T11:02:44.834Z,1.05
2019-03-18T11:05:13.284Z,1.40
2019-03-18T11:07:41.730Z,0.90
2019-03-18T11:10:12.805Z,0.75
2019-03-18T11:12:41.361Z,0.62
2019-03-18T11:15:12.437Z,1.10
2019-03-18T11:17:40.985Z,0.70
2019-03-18T11:20:12.151Z,0.98
2019-03-18T11:22:40.578Z,0.93
2019-03-18T11:25:10.968Z,0.80
2019-03-18T11:27:39.450Z,0.60
2019-03-18T11:30:16.365Z,0.40
2019-03-18T11:32:44.888Z,0.53
2019-03-18T11:35:13.382Z,0.65
2019-03-18T11:37:41.865Z,1.00
2019-03-18T11:40:13.266Z,0.60
2019-03-18T11:42:41.876Z,0.70
2019-03-18T11:45:14.440Z,1.00
2019-03-18T11:47:43.019Z,0.95
2019-03-18T11:50:15.581Z,0.80
2019-03-18T11:52:44.052Z,1.30
2019-03-18T11:55:15.545Z,1.40
2019-03-18T11:57:43.998Z,1.27
2019-03-18T12:00:15.391Z,0.90
2019-03-18T12:02:43.850Z,0.88
2019-03-18T12:05:14.920Z,0.75
2019-03-18T12:07:43.638Z,1.05
2019-03-18T12:10:14.600Z,1.12
2019-03-18T12:12:43.056Z,0.90
2019-03-18T12:15:14.341Z,0.60
2019-03-18T12:17:42.800Z,0.95
2019-03-18T12:20:24.483Z,1.07
2019-03-18T12:22:45.050Z,1.30
2019-03-18T12:25:13.727Z,0.75
2019-03-18T12:27:42.179Z,0.70
2019-03-18T12:30:16.613Z,0.90
2019-03-18T12:32:45.056Z,0.70
2019-03-18T12:35:13.764Z,0.60
2019-03-18T12:37:42.223Z,0.60
2019-03-18T12:40:13.576Z,0.60
2019-03-18T12:42:42.219Z,0.47
2019-03-18T12:45:14.632Z,0.70
2019-03-18T12:47:43.088Z,0.50
2019-03-18T12:50:38.513Z,0.70
2019-03-18T12:52:53.232Z,0.80
2019-03-18T12:55:21.698Z,0.70
2019-03-18T12:57:50.196Z,0.98
2019-03-18T13:00:27.718Z,1.05
2019-03-18T13:02:56.417Z,0.98
2019-03-18T13:05:25.058Z,1.40
2019-03-18T13:07:53.549Z,0.90
2019-03-18T13:10:22.347Z,0.70
2019-03-18T13:12:51.035Z,1.02
2019-03-18T13:15:20.627Z,0.70
2019-03-18T13:17:49.099Z,0.80
2019-03-18T13:20:19.766Z,0.40
2019-03-18T13:22:48.236Z,0.50
2019-03-18T13:25:16.731Z,1.15
2019-03-18T13:27:45.241Z,0.60
2019-03-18T13:30:18.012Z,0.80
2019-03-18T13:32:46.553Z,0.40
2019-03-18T13:35:15.269Z,0.60
2019-03-18T13:37:44.157Z,0.68
2019-03-18T13:40:14.436Z,0.80
2019-03-18T13:42:43.030Z,0.40
2019-03-18T13:45:18.453Z,0.70
2019-03-18T13:47:46.974Z,0.72
2019-03-18T13:50:17.829Z,0.75
2019-03-18T13:52:46.269Z,1.00
2019-03-18T13:55:14.791Z,0.82
2019-03-18T13:57:43.316Z,0.70
2019-03-18T14:00:14.391Z,0.50
2019-03-18T14:02:43.311Z,1.22
2019-03-18T14:05:12.709Z,0.75
2019-03-18T14:07:41.237Z,0.78
2019-03-18T14:10:18.025Z,0.90
2019-03-18T14:12:46.760Z,0.85
2019-03-18T14:15:22.407Z,0.72
2019-03-18T14:17:51.151Z,1.20
2019-03-18T14:20:25.018Z,0.60
2019-03-18T14:22:53.637Z,1.10
2019-03-18T14:25:22.102Z,0.75
2019-03-18T14:27:50.562Z,0.40
2019-03-18T14:30:20.072Z,1.10
2019-03-18T14:32:48.593Z,0.60
2019-03-18T14:35:21.470Z,0.80
2019-03-18T14:37:47.527Z,0.93
2019-03-18T14:40:18.136Z,1.25
2019-03-18T14:42:46.579Z,0.65
2019-03-18T14:45:19.358Z,0.88
2019-03-18T14:47:47.862Z,0.75
2019-03-18T14:50:17.965Z,1.20
2019-03-18T14:52:46.421Z,0.82
2019-03-18T14:55:16.029Z,1.40
2019-03-18T14:57:44.442Z,0.80
2019-03-18T15:00:15.928Z,1.10
2019-03-18T15:02:44.368Z,0.88
2019-03-18T15:05:14.659Z,0.72
2019-03-18T15:07:43.317Z,0.60
2019-03-18T15:10:23.103Z,0.78
2019-03-18T15:12:51.546Z,0.70
2019-03-18T15:15:20.148Z,0.47
2019-03-18T15:17:48.596Z,0.80
2019-03-18T15:20:19.813Z,0.40
2019-03-18T15:22:48.683Z,0.75
2019-03-18T15:25:25.489Z,0.40
2019-03-18T15:27:54.052Z,0.93
2019-03-18T15:30:22.487Z,0.55
2019-03-18T15:32:50.995Z,0.60
2019-03-18T15:35:19.671Z,0.55
2019-03-18T15:37:51.293Z,0.75
2019-03-18T15:40:22.048Z,0.55
2019-03-18T15:42:50.488Z,0.82
2019-03-18T15:45:20.202Z,0.93
2019-03-18T15:47:49.441Z,0.40
2019-03-18T15:50:19.146Z,1.35
2019-03-18T15:52:47.564Z,0.60
2019-03-18T15:55:16.102Z,0.42
2019-03-18T15:57:44.717Z,0.65
2019-03-18T16:00:23.159Z,0.85
2019-03-18T16:02:52.145Z,1.40
2019-03-18T16:05:20.839Z,1.10
2019-03-18T16:07:49.359Z,0.80
2019-03-18T16:10:18.753Z,1.02
2019-03-18T16:12:47.417Z,0.68
2019-03-18T16:15:16.826Z,0.80
2019-03-18T16:17:45.363Z,0.82
2019-03-18T16:20:29.828Z,1.57
2019-03-18T16:22:58.284Z,0.95
2019-03-18T16:25:26.779Z,0.60
2019-03-18T16:27:55.270Z,1.10
2019-03-18T16:30:23.700Z,1.20
2019-03-18T16:32:52.335Z,0.80
2019-03-18T16:35:20.935Z,1.35
2019-03-18T16:37:49.364Z,1.50
2019-03-18T16:40:21.930Z,1.37
2019-03-18T16:42:50.345Z,1.00
2019-03-18T16:45:19.719Z,0.98
2019-03-18T16:47:48.881Z,1.72
2019-03-18T16:50:31.300Z,1.32
2019-03-18T16:52:59.884Z,1.35
2019-03-18T16:55:28.319Z,1.05
2019-03-18T16:57:56.752Z,1.30
2019-03-18T17:00:26.244Z,1.22
2019-03-18T17:02:54.751Z,0.93
2019-03-18T17:05:23.218Z,0.93
2019-03-18T17:07:54.024Z,1.20
2019-03-18T17:10:22.225Z,1.20
2019-03-18T17:12:51.227Z,0.85
2019-03-18T17:15:20.727Z,1.27
2019-03-18T17:17:49.188Z,0.90
2019-03-18T17:20:18.297Z,1.15
2019-03-18T17:22:49.750Z,1.00
2019-03-18T17:25:19.263Z,0.93
2019-03-18T17:27:47.751Z,0.75
2019-03-18T17:30:20.090Z,1.05
2019-03-18T17:32:48.621Z,1.07
2019-03-18T17:35:17.072Z,0.65
2019-03-18T17:37:45.578Z,0.60
2019-03-18T17:40:18.179Z,1.25
2019-03-18T17:42:46.638Z,0.70
2019-03-18T17:45:16.295Z,1.62
2019-03-18T17:47:44.799Z,0.72
2019-03-18T17:50:24.772Z,0.95
2019-03-18T17:53:02.125Z,1.27
2019-03-18T17:55:23.474Z,0.93
2019-03-18T17:57:51.860Z,1.20
2019-03-18T18:00:24.727Z,1.00
2019-03-18T18:02:53.265Z,1.02
2019-03-18T18:05:21.732Z,0.90
2019-03-18T18:07:50.160Z,0.80
2019-03-18T18:10:18.613Z,1.02
2019-03-18T18:12:47.097Z,0.70
2019-03-18T18:15:15.554Z,1.10
2019-03-18T18:17:43.989Z,0.82
2019-03-18T18:20:13.870Z,0.50
2019-03-18T18:22:42.305Z,0.90
2019-03-18T18:25:11.877Z,0.80
2019-03-18T18:27:40.328Z,1.75
2019-03-18T18:30:11.198Z,1.10
2019-03-18T18:32:39.649Z,1.05
2019-03-18T18:35:10.508Z,0.93
2019-03-18T18:37:38.953Z,1.40
2019-03-18T18:40:10.759Z,1.40
2019-03-18T18:42:39.295Z,0.62
2019-03-18T18:45:09.658Z,0.70
2019-03-18T18:47:38.327Z,1.12
2019-03-18T18:50:09.474Z,0.82
2019-03-18T18:52:37.891Z,0.85
2019-03-18T18:55:11.246Z,0.93
2019-03-18T18:57:39.759Z,0.53
2019-03-18T19:00:19.497Z,0.82
2019-03-18T19:02:47.994Z,0.80
2019-03-18T19:05:19.609Z,0.70
2019-03-18T19:07:48.352Z,0.80
2019-03-18T19:10:20.713Z,0.85
2019-03-18T19:12:49.393Z,0.88
2019-03-18T19:15:26.516Z,1.07
2019-03-18T19:17:54.970Z,1.00
2019-03-18T19:20:23.469Z,1.00
2019-03-18T19:22:51.950Z,0.60
2019-03-18T19:25:20.372Z,0.80
2019-03-18T19:27:48.818Z,0.80
2019-03-18T19:30:19.278Z,1.00
2019-03-18T19:32:47.945Z,1.55
2019-03-18T19:35:20.091Z,1.02
2019-03-18T19:37:48.565Z,1.00
2019-03-18T19:40:23.863Z,0.95
2019-03-18T19:42:52.405Z,1.00
2019-03-18T19:45:20.854Z,0.70
2019-03-18T19:47:49.289Z,0.70
2019-03-18T19:50:25.675Z,0.98
2019-03-18T19:52:54.193Z,1.20
2019-03-18T19:55:22.695Z,0.80
2019-03-18T19:57:51.257Z,0.60
2019-03-18T20:00:23.807Z,0.85
2019-03-18T20:02:52.323Z,0.88
2019-03-18T20:05:20.777Z,1.62
2019-03-18T20:07:49.222Z,1.32
2019-03-18T20:10:18.792Z,0.75
2019-03-18T20:12:47.251Z,1.22
2019-03-18T20:15:16.736Z,1.47
2019-03-18T20:17:45.193Z,0.78
2019-03-18T20:20:19.301Z,0.90
2019-03-18T20:22:47.742Z,0.88
2019-03-18T20:25:16.270Z,1.40
2019-03-18T20:27:44.718Z,0.98
2019-03-18T20:30:18.555Z,1.27
2019-03-18T20:32:47.188Z,0.68
2019-03-18T20:35:21.748Z,0.88
2019-03-18T20:37:51.771Z,0.75
2019-03-18T20:40:21.000Z,0.40
2019-03-18T20:42:49.539Z,1.17
2019-03-18T20:45:19.309Z,0.60
2019-03-18T20:47:48.088Z,1.40
2019-03-18T20:50:20.350Z,1.10
2019-03-18T20:52:48.772Z,0.90
2019-03-18T20:55:17.482Z,0.95
2019-03-18T20:57:46.144Z,1.02
2019-03-18T21:00:18.714Z,1.10
2019-03-18T21:02:47.323Z,0.82
2019-03-18T21:05:16.199Z,0.85
2019-03-18T21:07:44.945Z,1.00
2019-03-18T21:10:20.563Z,1.12
2019-03-18T21:12:49.607Z,0.80
2019-03-18T21:15:18.761Z,1.02
2019-03-18T21:17:47.554Z,0.90
2019-03-18T21:20:24.411Z,0.50
2019-03-18T21:22:52.890Z,0.90
2019-03-18T21:25:21.311Z,0.60
2019-03-18T21:27:49.896Z,0.57
2019-03-18T21:30:19.780Z,0.93
2019-03-18T21:32:48.230Z,0.98
2019-03-18T21:35:16.846Z,0.60
2019-03-18T21:37:45.269Z,0.80
2019-03-18T21:40:16.022Z,0.70
2019-03-18T21:42:44.502Z,0.60
2019-03-18T21:45:18.009Z,1.20
2019-03-18T21:47:46.455Z,0.78
2019-03-18T21:50:15.839Z,1.35
2019-03-18T21:52:44.446Z,0.85
2019-03-18T21:55:13.457Z,0.95
2019-03-18T21:57:42.169Z,1.22
2019-03-18T22:00:18.269Z,0.90
2019-03-18T22:02:46.771Z,0.88
2019-03-18T22:05:15.835Z,1.02
2019-03-18T22:07:44.280Z,1.60
2019-03-18T22:10:14.356Z,1.02
2019-03-18T22:12:42.866Z,1.00
2019-03-18T22:15:15.245Z,1.25
2019-03-18T22:17:43.795Z,1.10
2019-03-18T22:20:18.835Z,1.12
2019-03-18T22:22:47.312Z,1.22
2019-03-18T22:25:16.407Z,0.90
2019-03-18T22:27:44.953Z,1.45
2019-03-18T22:30:18.182Z,1.00
2019-03-18T22:32:47.186Z,0.93
2019-03-18T22:35:15.680Z,1.00
2019-03-18T22:37:44.437Z,1.05
2019-03-18T22:40:18.938Z,0.93
2019-03-18T22:42:47.408Z,1.52
2019-03-18T22:45:19.293Z,0.90
2019-03-18T22:47:47.750Z,1.82
2019-03-18T22:50:17.990Z,0.70
2019-03-18T22:52:46.428Z,1.00
2019-03-18T22:55:15.804Z,1.00
2019-03-18T22:57:44.250Z,0.98
2019-03-18T23:00:21.580Z,1.22
2019-03-18T23:02:51.244Z,0.60
2019-03-18T23:05:19.711Z,0.80
2019-03-18T23:07:48.147Z,0.88
2019-03-18T23:10:16.696Z,0.60
2019-03-18T23:12:45.194Z,0.80
2019-03-18T23:15:13.941Z,0.75
2019-03-18T23:17:42.791Z,0.55
2019-03-18T23:20:11.391Z,1.30
2019-03-18T23:22:39.858Z,1.32
2019-03-18T23:25:08.494Z,1.17
2019-03-18T23:27:37.049Z,0.70
2019-03-18T23:30:10.773Z,0.98
2019-03-18T23:32:39.229Z,0.57
2019-03-18T23:35:08.105Z,0.82
2019-03-18T23:37:36.532Z,0.37
2019-03-18T23:40:14.851Z,0.88
2019-03-18T23:42:43.271Z,1.30
2019-03-18T23:45:12.997Z,1.07
2019-03-18T23:47:41.424Z,1.15
2019-03-18T23:50:15.318Z,0.95
2019-03-18T23:52:43.795Z,1.00
2019-03-18T23:55:18.841Z,1.07
2019-03-18T23:57:42.533Z,1.15
